CheckWX is a tool to help pilots better visualize weather data.  It is not intended as a substitute for an official pre-flight weather briefing.

17:43:18 UTC

CYPL TAF
Pickle Lake Airport
Pickle Lake, Canada
TAF CYPL 181241Z 1813/1901 08005KT P6SM FEW050 BECMG 1816/1818 36005KT RMK NXT FCST BY 182000Z

Jun-18@
13:00 UTC

Jun-18 @ 13:00 UTC

Jun-18@
16:00 UTC

Jun-18 @ 16:00 UTC

TAF CYPL 181241Z 1813/1901 08005KT P6SM FEW050

Expired

Wind
  • 080° at 5 KTS
Cloud Levels
  • Few at 5,000' AGL

Jun-18@
16:00 UTC

Jun-18 @ 16:00 UTC

Jun-19@
01:00 UTC

Jun-19 @ 01:00 UTC

BECMG 1816/1818 36005KT RMK NXT FCST BY 182000Z

Becoming

Becoming Conditions expected by Tue, Jun 18, 2019 @ 18:00 UTC

Wind
  • 360° at 5 KTS
Cloud Levels
  • Few at 5,000' AGL